Station Historical Data
Daily Summary for June 15, 2012 Units:  Both    English   Metric
« Previous Day
Next Day »
Daily Weekly Monthly Yearly Custom
  High: Low: Average:
Temperature: 87.6 °F /  30.9 °C 68.6 °F /  20.3 °C 77.6 °F /  25.3 °C
Dew Point: 70.9 °F /  21.6 °C 66.5 °F /  19.2 °C 68.6 °F /  20.3 °C
Humidity: 93% 52% 75%
Wind Speed: 16.0mph /  25.7km/h - 4.5mph /  7.2km/h
Wind Gust: 16.0mph /  25.7km/h - -
Wind- - SE
Pressure: 30.07 in /  1018.2 hPa 29.93 in /  1013.4 hPa -
Precipitation: 0.00 in /  0 mm    
Historical Graphs
 
 
Tabular Data for June 15, 2012
Time Temperature Dew Point Pressure Wind Wind Speed Wind Gust Humidity Rainfall Rate (Hourly) Conditions
00:00 74.5 °F /  23.6 °C 68.3 °F /  20.2 °C 29.97in /  1014.8hPa SE 1.0mph /  1.6km/h 2.0mph /  3.2km/h 81% 0.00in /  0mm
00:05 74.3 °F /  23.5 °C 68.4 °F /  20.2 °C 29.96in /  1014.4hPa ESE 2.0mph /  3.2km/h 2.0mph /  3.2km/h 82% 0.00in /  0mm
00:10 74.2 °F /  23.4 °C 68.4 °F /  20.2 °C 29.96in /  1014.4hPa East 2.0mph /  3.2km/h 2.0mph /  3.2km/h 82% 0.00in /  0mm
00:16 73.9 °F /  23.3 °C 68.1 °F /  20.1 °C 29.96in /  1014.4hPa ESE 1.0mph /  1.6km/h 2.0mph /  3.2km/h 82% 0.00in /  0mm
00:21 73.9 °F /  23.3 °C 68.4 °F /  20.2 °C 29.96in /  1014.4hPa East 2.0mph /  3.2km/h 2.0mph /  3.2km/h 83% 0.00in /  0mm
00:26 73.9 °F /  23.3 °C 68.4 °F /  20.2 °C 29.96in /  1014.4hPa ESE 1.0mph /  1.6km/h 2.0mph /  3.2km/h 83% 0.00in /  0mm
00:31 74.0 °F /  23.3 °C 68.9 °F /  20.5 °C 29.96in /  1014.4hPa ESE 2.0mph /  3.2km/h 2.0mph /  3.2km/h 84% 0.00in /  0mm
00:36 74.1 °F /  23.4 °C 69.0 °F /  20.6 °C 29.96in /  1014.4hPa ESE 2.0mph /  3.2km/h 2.0mph /  3.2km/h 84% 0.00in /  0mm
00:41 74.1 °F /  23.4 °C 68.6 °F /  20.3 °C 29.96in /  1014.4hPa SE 2.0mph /  3.2km/h 2.0mph /  3.2km/h 83% 0.00in /  0mm
00:46 73.9 °F /  23.3 °C 68.8 °F /  20.4 °C 29.96in /  1014.4hPa SE 2.0mph /  3.2km/h 3.0mph /  4.8km/h 84% 0.00in /  0mm
00:51 73.8 °F /  23.2 °C 68.7 °F /  20.4 °C 29.96in /  1014.4hPa SE 2.0mph /  3.2km/h 2.0mph /  3.2km/h 84% 0.00in /  0mm
00:56 73.6 °F /  23.1 °C 68.8 °F /  20.4 °C 29.96in /  1014.4hPa SSE 1.0mph /  1.6km/h 2.0mph /  3.2km/h 85% 0.00in /  0mm
01:01 73.4 °F /  23 °C 68.6 °F /  20.3 °C 29.95in /  1014.1hPa SE 1.0mph /  1.6km/h 2.0mph /  3.2km/h 85% 0.00in /  0mm
01:06 73.4 °F /  23 °C 69.0 °F /  20.6 °C 29.95in /  1014.1hPa SE 2.0mph /  3.2km/h 4.0mph /  6.4km/h 86% 0.00in /  0mm
01:11 73.4 °F /  23 °C 69.3 °F /  20.7 °C 29.95in /  1014.1hPa SE 2.0mph /  3.2km/h 2.0mph /  3.2km/h 87% 0.00in /  0mm
01:16 73.3 °F /  22.9 °C 68.9 °F /  20.5 °C 29.94in /  1013.8hPa SSE 2.0mph /  3.2km/h 2.0mph /  3.2km/h 86% 0.00in /  0mm
01:21 73.0 °F /  22.8 °C 68.9 °F /  20.5 °C 29.94in /  1013.8hPa SE 2.0mph /  3.2km/h 2.0mph /  3.2km/h 87% 0.00in /  0mm
01:26 73.1 °F /  22.8 °C 69.3 °F /  20.7 °C 29.94in /  1013.8hPa SE 3.0mph /  4.8km/h 4.0mph /  6.4km/h 88% 0.00in /  0mm
01:31 73.3 °F /  22.9 °C 69.2 °F /  20.7 °C 29.94in /  1013.8hPa East 2.0mph /  3.2km/h 4.0mph /  6.4km/h 87% 0.00in /  0mm
01:36 73.0 °F /  22.8 °C 68.9 °F /  20.5 °C 29.94in /  1013.8hPa ESE 1.0mph /  1.6km/h 2.0mph /  3.2km/h 87% 0.00in /  0mm
01:41 72.8 °F /  22.7 °C 69.0 °F /  20.6 °C 29.94in /  1013.8hPa ESE 1.0mph /  1.6km/h 2.0mph /  3.2km/h 88% 0.00in /  0mm
01:46 72.6 °F /  22.6 °C 68.8 °F /  20.4 °C 29.94in /  1013.8hPa SE 1.0mph /  1.6km/h 2.0mph /  3.2km/h 88% 0.00in /  0mm
01:51 72.2 °F /  22.3 °C 68.8 °F /  20.4 °C 29.94in /  1013.8hPa SE 3.0mph /  4.8km/h 3.0mph /  4.8km/h 89% 0.00in /  0mm
01:56 71.8 °F /  22.1 °C 68.7 °F /  20.4 °C 29.94in /  1013.8hPa SE 1.0mph /  1.6km/h 4.0mph /  6.4km/h 90% 0.00in /  0mm
02:01 71.6 °F /  22 °C 68.5 °F /  20.3 °C 29.94in /  1013.8hPa SE 2.0mph /  3.2km/h 3.0mph /  4.8km/h 90% 0.00in /  0mm
02:06 71.5 °F /  21.9 °C 68.4 °F /  20.2 °C 29.94in /  1013.8hPa ESE 3.0mph /  4.8km/h 3.0mph /  4.8km/h 90% 0.00in /  0mm
02:11 71.5 °F /  21.9 °C 68.7 °F /  20.4 °C 29.93in /  1013.4hPa ESE 2.0mph /  3.2km/h 2.0mph /  3.2km/h 91% 0.00in /  0mm
02:16 71.4 °F /  21.9 °C 68.6 °F /  20.3 °C 29.93in /  1013.4hPa SE 3.0mph /  4.8km/h 3.0mph /  4.8km/h 91% 0.00in /  0mm
02:21 71.6 °F /  22 °C 68.8 °F /  20.4 °C 29.93in /  1013.4hPa ESE 3.0mph /  4.8km/h 4.0mph /  6.4km/h 91% 0.00in /  0mm
02:26 71.6 °F /  22 °C 68.8 °F /  20.4 °C 29.94in /  1013.8hPa SE 2.0mph /  3.2km/h 5.0mph /  8km/h 91% 0.00in /  0mm
02:31 71.6 °F /  22 °C 68.8 °F /  20.4 °C 29.93in /  1013.4hPa SE 4.0mph /  6.4km/h 4.0mph /  6.4km/h 91% 0.00in /  0mm
02:36 71.6 °F /  22 °C 68.8 °F /  20.4 °C 29.93in /  1013.4hPa ESE 3.0mph /  4.8km/h 5.0mph /  8km/h 91% 0.00in /  0mm
02:41 71.4 °F /  21.9 °C 68.6 °F /  20.3 °C 29.93in /  1013.4hPa ESE 3.0mph /  4.8km/h 5.0mph /  8km/h 91% 0.00in /  0mm
02:46 71.4 °F /  21.9 °C 68.6 °F /  20.3 °C 29.94in /  1013.8hPa ESE 2.0mph /  3.2km/h 4.0mph /  6.4km/h 91% 0.00in /  0mm
02:51 71.2 °F /  21.8 °C 68.4 °F /  20.2 °C 29.94in /  1013.8hPa ESE 2.0mph /  3.2km/h 3.0mph /  4.8km/h 91% 0.00in /  0mm
02:56 71.0 °F /  21.7 °C 68.2 °F /  20.1 °C 29.94in /  1013.8hPa East 2.0mph /  3.2km/h 3.0mph /  4.8km/h 91% 0.00in /  0mm
03:01 70.8 °F /  21.6 °C 68.4 °F /  20.2 °C 29.94in /  1013.8hPa ESE 2.0mph /  3.2km/h 4.0mph /  6.4km/h 92% 0.00in /  0mm
03:06 70.7 °F /  21.5 °C 68.3 °F /  20.2 °C 29.94in /  1013.8hPa ESE 3.0mph /  4.8km/h 3.0mph /  4.8km/h 92% 0.00in /  0mm
03:11 70.6 °F /  21.4 °C 68.2 °F /  20.1 °C 29.94in /  1013.8hPa ESE 3.0mph /  4.8km/h 5.0mph /  8km/h 92% 0.00in /  0mm
03:16 70.5 °F /  21.4 °C 68.1 °F /  20.1 °C 29.94in /  1013.8hPa ESE 2.0mph /  3.2km/h 3.0mph /  4.8km/h 92% 0.00in /  0mm
03:21 70.5 °F /  21.4 °C 68.1 °F /  20.1 °C 29.95in /  1014.1hPa SE 2.0mph /  3.2km/h 2.0mph /  3.2km/h 92% 0.00in /  0mm
03:26 70.4 °F /  21.3 °C 68.0 °F /  20 °C 29.95in /  1014.1hPa SE 1.0mph /  1.6km/h 2.0mph /  3.2km/h 92% 0.00in /  0mm
03:31 70.3 °F /  21.3 °C 67.9 °F /  19.9 °C 29.95in /  1014.1hPa ESE 2.0mph /  3.2km/h 3.0mph /  4.8km/h 92% 0.00in /  0mm
03:36 70.4 °F /  21.3 °C 68.0 °F /  20 °C 29.94in /  1013.8hPa ESE 5.0mph /  8km/h 6.0mph /  9.7km/h 92% 0.00in /  0mm
03:41 70.5 °F /  21.4 °C 68.1 °F /  20.1 °C 29.95in /  1014.1hPa SE 3.0mph /  4.8km/h 5.0mph /  8km/h 92% 0.00in /  0mm
03:46 70.7 °F /  21.5 °C 68.3 °F /  20.2 °C 29.95in /  1014.1hPa ESE 4.0mph /  6.4km/h 5.0mph /  8km/h 92% 0.00in /  0mm
03:51 70.9 °F /  21.6 °C 68.5 °F /  20.3 °C 29.95in /  1014.1hPa SE 3.0mph /  4.8km/h 6.0mph /  9.7km/h 92% 0.00in /  0mm
03:56 71.0 °F /  21.7 °C 68.6 °F /  20.3 °C 29.95in /  1014.1hPa SE 3.0mph /  4.8km/h 5.0mph /  8km/h 92% 0.00in /  0mm
04:01 71.1 °F /  21.7 °C 68.3 °F /  20.2 °C 29.96in /  1014.4hPa SE 4.0mph /  6.4km/h 6.0mph /  9.7km/h 91% 0.00in /  0mm
04:06 71.2 °F /  21.8 °C 68.4 °F /  20.2 °C 29.96in /  1014.4hPa SE 2.0mph /  3.2km/h 5.0mph /  8km/h 91% 0.00in /  0mm
04:11 71.2 °F /  21.8 °C 68.4 °F /  20.2 °C 29.96in /  1014.4hPa SE 6.0mph /  9.7km/h 6.0mph /  9.7km/h 91% 0.00in /  0mm
04:16 71.2 °F /  21.8 °C 68.4 °F /  20.2 °C 29.96in /  1014.4hPa ESE 4.0mph /  6.4km/h 5.0mph /  8km/h 91% 0.00in /  0mm
04:21 71.1 °F /  21.7 °C 68.3 °F /  20.2 °C 29.96in /  1014.4hPa SE 3.0mph /  4.8km/h 5.0mph /  8km/h 91% 0.00in /  0mm
04:26 71.1 °F /  21.7 °C 68.3 °F /  20.2 °C 29.96in /  1014.4hPa SE 3.0mph /  4.8km/h 5.0mph /  8km/h 91% 0.00in /  0mm
04:31 71.0 °F /  21.7 °C 68.2 °F /  20.1 °C 29.96in /  1014.4hPa ESE 3.0mph /  4.8km/h 5.0mph /  8km/h 91% 0.00in /  0mm
04:36 70.9 °F /  21.6 °C 68.2 °F /  20.1 °C 29.96in /  1014.4hPa ESE 4.0mph /  6.4km/h 5.0mph /  8km/h 91% 0.00in /  0mm
04:41 70.8 °F /  21.6 °C 68.1 °F /  20.1 °C 29.96in /  1014.4hPa SE 3.0mph /  4.8km/h 5.0mph /  8km/h 91% 0.00in /  0mm
04:46 70.6 °F /  21.4 °C 67.8 °F /  19.9 °C 29.97in /  1014.8hPa ESE 4.0mph /  6.4km/h 4.0mph /  6.4km/h 91% 0.00in /  0mm
04:51 70.5 °F /  21.4 °C 67.8 °F /  19.9 °C 29.97in /  1014.8hPa SE 2.0mph /  3.2km/h 4.0mph /  6.4km/h 91% 0.00in /  0mm
04:56 70.4 °F /  21.3 °C 68.0 °F /  20 °C 29.97in /  1014.8hPa SE 4.0mph /  6.4km/h 4.0mph /  6.4km/h 92% 0.00in /  0mm
05:01 70.5 °F /  21.4 °C 68.1 °F /  20.1 °C 29.98in /  1015.1hPa SE 2.0mph /  3.2km/h 5.0mph /  8km/h 92% 0.00in /  0mm
05:06 70.5 °F /  21.4 °C 68.1 °F /  20.1 °C 29.98in /  1015.1hPa SE 2.0mph /  3.2km/h 4.0mph /  6.4km/h 92% 0.00in /  0mm
05:11 70.5 °F /  21.4 °C 68.1 °F /  20.1 °C 29.98in /  1015.1hPa East 4.0mph /  6.4km/h 4.0mph /  6.4km/h 92% 0.00in /  0mm
05:16 70.5 °F /  21.4 °C 68.1 °F /  20.1 °C 29.99in /  1015.5hPa SSE 3.0mph /  4.8km/h 4.0mph /  6.4km/h 92% 0.00in /  0mm
05:21 70.5 °F /  21.4 °C 68.1 °F /  20.1 °C 29.99in /  1015.5hPa SE 3.0mph /  4.8km/h 5.0mph /  8km/h 92% 0.00in /  0mm
05:26 70.5 °F /  21.4 °C 68.1 °F /  20.1 °C 29.99in /  1015.5hPa ESE 3.0mph /  4.8km/h 4.0mph /  6.4km/h 92% 0.00in /  0mm
05:31 70.3 °F /  21.3 °C 67.9 °F /  19.9 °C 30.00in /  1015.8hPa SE 3.0mph /  4.8km/h 5.0mph /  8km/h 92% 0.00in /  0mm
05:36 70.2 °F /  21.2 °C 67.8 °F /  19.9 °C 30.00in /  1015.8hPa SE 2.0mph /  3.2km/h 4.0mph /  6.4km/h 92% 0.00in /  0mm
05:41 70.2 °F /  21.2 °C 67.8 °F /  19.9 °C 30.00in /  1015.8hPa SE 3.0mph /  4.8km/h 4.0mph /  6.4km/h 92% 0.00in /  0mm
05:46 70.1 °F /  21.2 °C 67.7 °F /  19.8 °C 30.00in /  1015.8hPa ESE 3.0mph /  4.8km/h 5.0mph /  8km/h 92% 0.00in /  0mm
05:51 70.0 °F /  21.1 °C 67.6 °F /  19.8 °C 30.00in /  1015.8hPa SE 3.0mph /  4.8km/h 4.0mph /  6.4km/h 92% 0.00in /  0mm
05:56 69.9 °F /  21.1 °C 67.5 °F /  19.7 °C 30.00in /  1015.8hPa ESE 2.0mph /  3.2km/h 5.0mph /  8km/h 92% 0.00in /  0mm
06:01 69.7 °F /  20.9 °C 67.3 °F /  19.6 °C 30.00in /  1015.8hPa ESE 1.0mph /  1.6km/h 4.0mph /  6.4km/h 92% 0.00in /  0mm
06:06 69.6 °F /  20.9 °C 67.2 °F /  19.6 °C 30.01in /  1016.1hPa SE 3.0mph /  4.8km/h 3.0mph /  4.8km/h 92% 0.00in /  0mm
06:11 69.4 °F /  20.8 °C 67.0 °F /  19.4 °C 30.01in /  1016.1hPa SE 2.0mph /  3.2km/h 4.0mph /  6.4km/h 92% 0.00in /  0mm
06:16 69.3 °F /  20.7 °C 66.9 °F /  19.4 °C 30.01in /  1016.1hPa ESE 2.0mph /  3.2km/h 4.0mph /  6.4km/h 92% 0.00in /  0mm
06:21 69.1 °F /  20.6 °C 66.7 °F /  19.3 °C 30.01in /  1016.1hPa ESE 1.0mph /  1.6km/h 3.0mph /  4.8km/h 92% 0.00in /  0mm
06:26 68.9 °F /  20.5 °C 66.5 °F /  19.2 °C 30.01in /  1016.1hPa ESE 2.0mph /  3.2km/h 3.0mph /  4.8km/h 92% 0.00in /  0mm
06:32 68.8 °F /  20.4 °C 66.7 °F /  19.3 °C 30.02in /  1016.5hPa ESE 3.0mph /  4.8km/h 4.0mph /  6.4km/h 93% 0.00in /  0mm
06:37 68.7 °F /  20.4 °C 66.6 °F /  19.2 °C 30.02in /  1016.5hPa SE 2.0mph /  3.2km/h 3.0mph /  4.8km/h 93% 0.00in /  0mm
06:42 68.6 °F /  20.3 °C 66.5 °F /  19.2 °C 30.02in /  1016.5hPa SE 2.0mph /  3.2km/h 3.0mph /  4.8km/h 93% 0.00in /  0mm
06:47 68.7 °F /  20.4 °C 66.6 °F /  19.2 °C 30.03in /  1016.8hPa ESE 2.0mph /  3.2km/h 3.0mph /  4.8km/h 93% 0.00in /  0mm
06:52 68.7 °F /  20.4 °C 66.6 °F /  19.2 °C 30.03in /  1016.8hPa ESE 2.0mph /  3.2km/h 3.0mph /  4.8km/h 93% 0.00in /  0mm
06:57 68.6 °F /  20.3 °C 66.5 °F /  19.2 °C 30.04in /  1017.2hPa ESE 2.0mph /  3.2km/h 3.0mph /  4.8km/h 93% 0.00in /  0mm
07:02 68.7 °F /  20.4 °C 66.6 °F /  19.2 °C 30.03in /  1016.8hPa ESE 1.0mph /  1.6km/h 3.0mph /  4.8km/h 93% 0.00in /  0mm
07:07 68.8 °F /  20.4 °C 66.7 °F /  19.3 °C 30.03in /  1016.8hPa ESE 2.0mph /  3.2km/h 3.0mph /  4.8km/h 93% 0.00in /  0mm
07:12 68.9 °F /  20.5 °C 66.8 °F /  19.3 °C 30.04in /  1017.2hPa SE 3.0mph /  4.8km/h 3.0mph /  4.8km/h 93% 0.00in /  0mm
07:17 69.1 °F /  20.6 °C 67.0 °F /  19.4 °C 30.04in /  1017.2hPa East 1.0mph /  1.6km/h 2.0mph /  3.2km/h 93% 0.00in /  0mm
07:22 69.4 °F /  20.8 °C 67.0 °F /  19.4 °C 30.04in /  1017.2hPa ESE 2.0mph /  3.2km/h 3.0mph /  4.8km/h 92% 0.00in /  0mm
07:27 69.6 °F /  20.9 °C 67.2 °F /  19.6 °C 30.04in /  1017.2hPa ESE 1.0mph /  1.6km/h 3.0mph /  4.8km/h 92% 0.00in /  0mm
07:32 69.8 °F /  21 °C 67.4 °F /  19.7 °C 30.04in /  1017.2hPa SE 2.0mph /  3.2km/h 4.0mph /  6.4km/h 92% 0.00in /  0mm
07:37 70.1 °F /  21.2 °C 67.7 °F /  19.8 °C 30.04in /  1017.2hPa East 2.0mph /  3.2km/h 4.0mph /  6.4km/h 92% 0.00in /  0mm
07:42 70.4 °F /  21.3 °C 68.0 °F /  20 °C 30.04in /  1017.2hPa East 3.0mph /  4.8km/h 4.0mph /  6.4km/h 92% 0.00in /  0mm
07:47 70.7 °F /  21.5 °C 68.3 °F /  20.2 °C 30.04in /  1017.2hPa East 2.0mph /  3.2km/h 6.0mph /  9.7km/h 92% 0.00in /  0mm
07:52 71.2 °F /  21.8 °C 68.8 °F /  20.4 °C 30.05in /  1017.5hPa East 4.0mph /  6.4km/h 5.0mph /  8km/h 92% 0.00in /  0mm
07:57 71.2 °F /  21.8 °C 68.8 °F /  20.4 °C 30.05in /  1017.5hPa ESE 6.0mph /  9.7km/h 6.0mph /  9.7km/h 92% 0.00in /  0mm
08:02 71.2 °F /  21.8 °C 68.4 °F /  20.2 °C 30.05in /  1017.5hPa East 2.0mph /  3.2km/h 6.0mph /  9.7km/h 91% 0.00in /  0mm
08:07 71.2 °F /  21.8 °C 68.8 °F /  20.4 °C 30.05in /  1017.5hPa SE 3.0mph /  4.8km/h 6.0mph /  9.7km/h 92% 0.00in /  0mm
08:12 71.3 °F /  21.8 °C 68.5 °F /  20.3 °C 30.05in /  1017.5hPa SE 6.0mph /  9.7km/h 8.0mph /  12.9km/h 91% 0.00in /  0mm
08:17 71.5 °F /  21.9 °C 68.7 °F /  20.4 °C 30.05in /  1017.5hPa ESE 6.0mph /  9.7km/h 6.0mph /  9.7km/h 91% 0.00in /  0mm
08:22 71.8 °F /  22.1 °C 69.0 °F /  20.6 °C 30.05in /  1017.5hPa SE 4.0mph /  6.4km/h 8.0mph /  12.9km/h 91% 0.00in /  0mm
08:27 72.0 °F /  22.2 °C 69.2 °F /  20.7 °C 30.05in /  1017.5hPa East 3.0mph /  4.8km/h 7.0mph /  11.3km/h 91% 0.00in /  0mm
08:32 72.2 °F /  22.3 °C 69.1 °F /  20.6 °C 30.05in /  1017.5hPa ESE 3.0mph /  4.8km/h 8.0mph /  12.9km/h 90% 0.00in /  0mm
08:37 72.3 °F /  22.4 °C 69.2 °F /  20.7 °C 30.06in /  1017.8hPa ESE 5.0mph /  8km/h 7.0mph /  11.3km/h 90% 0.00in /  0mm
08:42 72.3 °F /  22.4 °C 69.2 °F /  20.7 °C 30.06in /  1017.8hPa ESE 5.0mph /  8km/h 8.0mph /  12.9km/h 90% 0.00in /  0mm
08:47 72.6 °F /  22.6 °C 69.5 °F /  20.8 °C 30.06in /  1017.8hPa SE 2.0mph /  3.2km/h 7.0mph /  11.3km/h 90% 0.00in /  0mm
08:52 73.0 °F /  22.8 °C 69.6 °F /  20.9 °C 30.06in /  1017.8hPa ESE 7.0mph /  11.3km/h 8.0mph /  12.9km/h 89% 0.00in /  0mm
08:57 73.4 °F /  23 °C 70.0 °F /  21.1 °C 30.06in /  1017.8hPa SE 9.0mph /  14.5km/h 9.0mph /  14.5km/h 89% 0.00in /  0mm
09:02 73.5 °F /  23.1 °C 69.7 °F /  20.9 °C 30.06in /  1017.8hPa SE 6.0mph /  9.7km/h 10.0mph /  16.1km/h 88% 0.00in /  0mm
09:07 73.7 °F /  23.2 °C 69.9 °F /  21.1 °C 30.06in /  1017.8hPa SE 8.0mph /  12.9km/h 9.0mph /  14.5km/h 88% 0.00in /  0mm
09:12 74.0 °F /  23.3 °C 69.9 °F /  21.1 °C 30.06in /  1017.8hPa SE 8.0mph /  12.9km/h 11.0mph /  17.7km/h 87% 0.00in /  0mm
09:17 74.3 °F /  23.5 °C 69.8 °F /  21 °C 30.06in /  1017.8hPa ESE 7.0mph /  11.3km/h 10.0mph /  16.1km/h 86% 0.00in /  0mm
09:22 74.7 °F /  23.7 °C 70.2 °F /  21.2 °C 30.06in /  1017.8hPa SSE 6.0mph /  9.7km/h 10.0mph /  16.1km/h 86% 0.00in /  0mm
09:27 75.0 °F /  23.9 °C 70.2 °F /  21.2 °C 30.07in /  1018.2hPa ESE 5.0mph /  8km/h 11.0mph /  17.7km/h 85% 0.00in /  0mm
09:33 75.4 °F /  24.1 °C 69.9 °F /  21.1 °C 30.07in /  1018.2hPa SE 10.0mph /  16.1km/h 10.0mph /  16.1km/h 83% 0.00in /  0mm
09:38 75.3 °F /  24.1 °C 69.8 °F /  21 °C 30.07in /  1018.2hPa SE 9.0mph /  14.5km/h 11.0mph /  17.7km/h 83% 0.00in /  0mm
09:43 75.3 °F /  24.1 °C 69.4 °F /  20.8 °C 30.06in /  1017.8hPa ESE 8.0mph /  12.9km/h 13.0mph /  20.9km/h 82% 0.00in /  0mm
09:48 75.6 °F /  24.2 °C 69.4 °F /  20.8 °C 30.06in /  1017.8hPa ESE 12.0mph /  19.3km/h 14.0mph /  22.5km/h 81% 0.00in /  0mm
09:53 75.9 °F /  24.4 °C 69.7 °F /  20.9 °C 30.07in /  1018.2hPa SSE 5.0mph /  8km/h 11.0mph /  17.7km/h 81% 0.00in /  0mm
09:58 76.0 °F /  24.4 °C 69.4 °F /  20.8 °C 30.06in /  1017.8hPa SE 7.0mph /  11.3km/h 14.0mph /  22.5km/h 80% 0.00in /  0mm
10:03 76.1 °F /  24.5 °C 69.5 °F /  20.8 °C 30.06in /  1017.8hPa ESE 6.0mph /  9.7km/h 11.0mph /  17.7km/h 80% 0.00in /  0mm
10:08 76.2 °F /  24.6 °C 69.6 °F /  20.9 °C 30.07in /  1018.2hPa SE 5.0mph /  8km/h 10.0mph /  16.1km/h 80% 0.00in /  0mm
10:13 76.8 °F /  24.9 °C 69.1 °F /  20.6 °C 30.06in /  1017.8hPa SE 12.0mph /  19.3km/h 12.0mph /  19.3km/h 77% 0.00in /  0mm
10:18 76.7 °F /  24.8 °C 68.6 °F /  20.3 °C 30.07in /  1018.2hPa SE 8.0mph /  12.9km/h 14.0mph /  22.5km/h 76% 0.00in /  0mm
10:23 76.5 °F /  24.7 °C 68.8 °F /  20.4 °C 30.06in /  1017.8hPa SE 10.0mph /  16.1km/h 14.0mph /  22.5km/h 77% 0.00in /  0mm
10:28 76.8 °F /  24.9 °C 69.4 °F /  20.8 °C 30.06in /  1017.8hPa SSE 9.0mph /  14.5km/h 13.0mph /  20.9km/h 78% 0.00in /  0mm
10:33 77.2 °F /  25.1 °C 69.8 °F /  21 °C 30.06in /  1017.8hPa ESE 9.0mph /  14.5km/h 12.0mph /  19.3km/h 78% 0.00in /  0mm
10:38 77.8 °F /  25.4 °C 70.4 °F /  21.3 °C 30.06in /  1017.8hPa ESE 13.0mph /  20.9km/h 13.0mph /  20.9km/h 78% 0.00in /  0mm
10:43 77.5 °F /  25.3 °C 69.3 °F /  20.7 °C 30.06in /  1017.8hPa SSE 4.0mph /  6.4km/h 12.0mph /  19.3km/h 76% 0.00in /  0mm
10:48 77.8 °F /  25.4 °C 68.9 °F /  20.5 °C 30.06in /  1017.8hPa South 12.0mph /  19.3km/h 12.0mph /  19.3km/h 74% 0.00in /  0mm
10:53 78.0 °F /  25.6 °C 69.4 °F /  20.8 °C 30.06in /  1017.8hPa SSE 11.0mph /  17.7km/h 11.0mph /  17.7km/h 75% 0.00in /  0mm
10:58 78.3 °F /  25.7 °C 68.1 °F /  20.1 °C 30.06in /  1017.8hPa ESE 9.0mph /  14.5km/h 11.0mph /  17.7km/h 71% 0.00in /  0mm
11:03 78.5 °F /  25.8 °C 68.7 °F /  20.4 °C 30.06in /  1017.8hPa South 8.0mph /  12.9km/h 11.0mph /  17.7km/h 72% 0.00in /  0mm
11:08 78.6 °F /  25.9 °C 69.6 °F /  20.9 °C 30.06in /  1017.8hPa ESE 9.0mph /  14.5km/h 13.0mph /  20.9km/h 74% 0.00in /  0mm
11:13 78.6 °F /  25.9 °C 70.0 °F /  21.1 °C 30.06in /  1017.8hPa SE 6.0mph /  9.7km/h 11.0mph /  17.7km/h 75% 0.00in /  0mm
11:18 79.0 °F /  26.1 °C 68.8 °F /  20.4 °C 30.06in /  1017.8hPa ESE 11.0mph /  17.7km/h 12.0mph /  19.3km/h 71% 0.00in /  0mm
11:23 79.0 °F /  26.1 °C 69.6 °F /  20.9 °C 30.05in /  1017.5hPa SSE 7.0mph /  11.3km/h 12.0mph /  19.3km/h 73% 0.00in /  0mm
11:28 79.2 °F /  26.2 °C 69.0 °F /  20.6 °C 30.05in /  1017.5hPa ESE 8.0mph /  12.9km/h 10.0mph /  16.1km/h 71% 0.00in /  0mm
11:33 79.6 °F /  26.4 °C 69.8 °F /  21 °C 30.06in /  1017.8hPa SE 8.0mph /  12.9km/h 11.0mph /  17.7km/h 72% 0.00in /  0mm
11:38 79.4 °F /  26.3 °C 69.2 °F /  20.7 °C 30.05in /  1017.5hPa East 9.0mph /  14.5km/h 13.0mph /  20.9km/h 71% 0.00in /  0mm
11:43 79.2 °F /  26.2 °C 70.2 °F /  21.2 °C 30.05in /  1017.5hPa SE 5.0mph /  8km/h 11.0mph /  17.7km/h 74% 0.00in /  0mm
11:48 79.6 °F /  26.4 °C 69.4 °F /  20.8 °C 30.05in /  1017.5hPa East 10.0mph /  16.1km/h 12.0mph /  19.3km/h 71% 0.00in /  0mm
11:53 79.5 °F /  26.4 °C 70.9 °F /  21.6 °C 30.05in /  1017.5hPa East 5.0mph /  8km/h 9.0mph /  14.5km/h 75% 0.00in /  0mm
11:58 80.0 °F /  26.7 °C 70.6 °F /  21.4 °C 30.05in /  1017.5hPa SE 13.0mph /  20.9km/h 13.0mph /  20.9km/h 73% 0.00in /  0mm
12:03 80.2 °F /  26.8 °C 68.3 °F /  20.2 °C 30.05in /  1017.5hPa SE 11.0mph /  17.7km/h 14.0mph /  22.5km/h 67% 0.00in /  0mm
12:08 80.3 °F /  26.8 °C 67.9 °F /  19.9 °C 30.05in /  1017.5hPa SSE 12.0mph /  19.3km/h 13.0mph /  20.9km/h 66% 0.00in /  0mm
12:13 80.4 °F /  26.9 °C 68.0 °F /  20 °C 30.05in /  1017.5hPa South 10.0mph /  16.1km/h 12.0mph /  19.3km/h 66% 0.00in /  0mm
12:18 80.6 °F /  27 °C 67.8 °F /  19.9 °C 30.04in /  1017.2hPa SSE 7.0mph /  11.3km/h 10.0mph /  16.1km/h 65% 0.00in /  0mm
12:23 80.9 °F /  27.2 °C 69.8 °F /  21 °C 30.04in /  1017.2hPa ESE 8.0mph /  12.9km/h 10.0mph /  16.1km/h 69% 0.00in /  0mm
12:28 81.3 °F /  27.4 °C 69.3 °F /  20.7 °C 30.05in /  1017.5hPa SE 7.0mph /  11.3km/h 11.0mph /  17.7km/h 67% 0.00in /  0mm
12:33 81.6 °F /  27.6 °C 69.6 °F /  20.9 °C 30.04in /  1017.2hPa SE 8.0mph /  12.9km/h 11.0mph /  17.7km/h 67% 0.00in /  0mm
12:38 81.4 °F /  27.4 °C 69.0 °F /  20.6 °C 30.05in /  1017.5hPa SE 7.0mph /  11.3km/h 13.0mph /  20.9km/h 66% 0.00in /  0mm
12:43 81.3 °F /  27.4 °C 69.3 °F /  20.7 °C 30.04in /  1017.2hPa SE 11.0mph /  17.7km/h 14.0mph /  22.5km/h 67% 0.00in /  0mm
12:48 81.2 °F /  27.3 °C 69.2 °F /  20.7 °C 30.04in /  1017.2hPa SE 9.0mph /  14.5km/h 12.0mph /  19.3km/h 67% 0.00in /  0mm
12:53 81.7 °F /  27.6 °C 70.1 °F /  21.2 °C 30.04in /  1017.2hPa East 8.0mph /  12.9km/h 12.0mph /  19.3km/h 68% 0.00in /  0mm
12:58 82.1 °F /  27.8 °C 70.5 °F /  21.4 °C 30.04in /  1017.2hPa SE 11.0mph /  17.7km/h 11.0mph /  17.7km/h 68% 0.00in /  0mm
13:03 82.0 °F /  27.8 °C 69.1 °F /  20.6 °C 30.04in /  1017.2hPa SSE 9.0mph /  14.5km/h 11.0mph /  17.7km/h 65% 0.00in /  0mm
13:08 82.1 °F /  27.8 °C 66.8 °F /  19.3 °C 30.04in /  1017.2hPa SSE 5.0mph /  8km/h 13.0mph /  20.9km/h 60% 0.00in /  0mm
13:13 82.3 °F /  27.9 °C 68.9 °F /  20.5 °C 30.04in /  1017.2hPa SSW 5.0mph /  8km/h 12.0mph /  19.3km/h 64% 0.00in /  0mm
13:18 82.6 °F /  28.1 °C 69.2 °F /  20.7 °C 30.04in /  1017.2hPa SE 9.0mph /  14.5km/h 10.0mph /  16.1km/h 64% 0.00in /  0mm
13:23 82.7 °F /  28.2 °C 67.4 °F /  19.7 °C 30.04in /  1017.2hPa South 10.0mph /  16.1km/h 13.0mph /  20.9km/h 60% 0.00in /  0mm
13:29 82.8 °F /  28.2 °C 68.9 °F /  20.5 °C 30.04in /  1017.2hPa SE 5.0mph /  8km/h 9.0mph /  14.5km/h 63% 0.00in /  0mm
13:33 82.7 °F /  28.2 °C 67.4 °F /  19.7 °C 30.03in /  1016.8hPa SE 8.0mph /  12.9km/h 16.0mph /  25.7km/h 60% 0.00in /  0mm
13:39 82.7 °F /  28.2 °C 67.4 °F /  19.7 °C 30.04in /  1017.2hPa ESE 9.0mph /  14.5km/h 13.0mph /  20.9km/h 60% 0.00in /  0mm
13:44 83.1 °F /  28.4 °C 68.7 °F /  20.4 °C 30.04in /  1017.2hPa South 3.0mph /  4.8km/h 9.0mph /  14.5km/h 62% 0.00in /  0mm
13:49 83.4 °F /  28.6 °C 69.5 °F /  20.8 °C 30.04in /  1017.2hPa South 9.0mph /  14.5km/h 12.0mph /  19.3km/h 63% 0.00in /  0mm
13:54 83.6 °F /  28.7 °C 70.1 °F /  21.2 °C 30.04in /  1017.2hPa SSE 6.0mph /  9.7km/h 9.0mph /  14.5km/h 64% 0.00in /  0mm
13:59 83.9 °F /  28.8 °C 68.1 °F /  20.1 °C 30.04in /  1017.2hPa ESE 8.0mph /  12.9km/h 11.0mph /  17.7km/h 59% 0.00in /  0mm
14:04 83.4 °F /  28.6 °C 68.6 °F /  20.3 °C 30.03in /  1016.8hPa SSE 8.0mph /  12.9km/h 11.0mph /  17.7km/h 61% 0.00in /  0mm
14:09 83.4 °F /  28.6 °C 69.0 °F /  20.6 °C 30.03in /  1016.8hPa SSE 3.0mph /  4.8km/h 11.0mph /  17.7km/h 62% 0.00in /  0mm
14:14 83.7 °F /  28.7 °C 69.3 °F /  20.7 °C 30.03in /  1016.8hPa SE 16.0mph /  25.7km/h 16.0mph /  25.7km/h 62% 0.00in /  0mm
14:19 83.4 °F /  28.6 °C 69.5 °F /  20.8 °C 30.03in /  1016.8hPa ESE 5.0mph /  8km/h 10.0mph /  16.1km/h 63% 0.00in /  0mm
14:24 83.2 °F /  28.4 °C 68.4 °F /  20.2 °C 30.03in /  1016.8hPa SSE 6.0mph /  9.7km/h 10.0mph /  16.1km/h 61% 0.00in /  0mm
14:29 83.9 °F /  28.8 °C 70.0 °F /  21.1 °C 30.03in /  1016.8hPa SSW 5.0mph /  8km/h 9.0mph /  14.5km/h 63% 0.00in /  0mm
14:34 84.1 °F /  28.9 °C 70.2 °F /  21.2 °C 30.03in /  1016.8hPa ESE 7.0mph /  11.3km/h 9.0mph /  14.5km/h 63% 0.00in /  0mm
14:39 84.1 °F /  28.9 °C 70.2 °F /  21.2 °C 30.02in /  1016.5hPa SE 11.0mph /  17.7km/h 12.0mph /  19.3km/h 63% 0.00in /  0mm
14:44 84.0 °F /  28.9 °C 70.1 °F /  21.2 °C 30.03in /  1016.8hPa SSE 6.0mph /  9.7km/h 11.0mph /  17.7km/h 63% 0.00in /  0mm
14:49 84.1 °F /  28.9 °C 69.7 °F /  20.9 °C 30.02in /  1016.5hPa South 11.0mph /  17.7km/h 11.0mph /  17.7km/h 62% 0.00in /  0mm
14:54 84.0 °F /  28.9 °C 69.1 °F /  20.6 °C 30.02in /  1016.5hPa ESE 10.0mph /  16.1km/h 10.0mph /  16.1km/h 61% 0.00in /  0mm
14:59 84.7 °F /  29.3 °C 70.2 °F /  21.2 °C 30.02in /  1016.5hPa SSE 9.0mph /  14.5km/h 10.0mph /  16.1km/h 62% 0.00in /  0mm
15:04 84.7 °F /  29.3 °C 67.3 °F /  19.6 °C 30.02in /  1016.5hPa SE 7.0mph /  11.3km/h 12.0mph /  19.3km/h 56% 0.00in /  0mm
15:09 84.7 °F /  29.3 °C 69.3 °F /  20.7 °C 30.02in /  1016.5hPa SSE 10.0mph /  16.1km/h 12.0mph /  19.3km/h 60% 0.00in /  0mm
15:14 84.9 °F /  29.4 °C 69.0 °F /  20.6 °C 30.02in /  1016.5hPa SE 11.0mph /  17.7km/h 11.0mph /  17.7km/h 59% 0.00in /  0mm
15:19 85.1 °F /  29.5 °C 68.2 °F /  20.1 °C 30.01in /  1016.1hPa ESE 10.0mph /  16.1km/h 10.0mph /  16.1km/h 57% 0.00in /  0mm
15:24 85.2 °F /  29.6 °C 69.3 °F /  20.7 °C 30.01in /  1016.1hPa South 11.0mph /  17.7km/h 11.0mph /  17.7km/h 59% 0.00in /  0mm
15:29 85.3 °F /  29.6 °C 69.4 °F /  20.8 °C 30.01in /  1016.1hPa SSE 9.0mph /  14.5km/h 11.0mph /  17.7km/h 59% 0.00in /  0mm
15:34 85.3 °F /  29.6 °C 68.9 °F /  20.5 °C 30.01in /  1016.1hPa ESE 8.0mph /  12.9km/h 10.0mph /  16.1km/h 58% 0.00in /  0mm
15:39 85.7 °F /  29.8 °C 70.2 °F /  21.2 °C 30.01in /  1016.1hPa South 7.0mph /  11.3km/h 9.0mph /  14.5km/h 60% 0.00in /  0mm
15:44 85.5 °F /  29.7 °C 69.6 °F /  20.9 °C 30.01in /  1016.1hPa SSE 5.0mph /  8km/h 8.0mph /  12.9km/h 59% 0.00in /  0mm
15:49 85.7 °F /  29.8 °C 68.2 °F /  20.1 °C 30.01in /  1016.1hPa SSE 5.0mph /  8km/h 9.0mph /  14.5km/h 56% 0.00in /  0mm
15:54 85.8 °F /  29.9 °C 69.8 °F /  21 °C 30.01in /  1016.1hPa SSE 11.0mph /  17.7km/h 11.0mph /  17.7km/h 59% 0.00in /  0mm
15:59 85.5 °F /  29.7 °C 68.0 °F /  20 °C 30.01in /  1016.1hPa SE 10.0mph /  16.1km/h 10.0mph /  16.1km/h 56% 0.00in /  0mm
16:04 85.6 °F /  29.8 °C 68.6 °F /  20.3 °C 30.01in /  1016.1hPa SSW 10.0mph /  16.1km/h 10.0mph /  16.1km/h 57% 0.00in /  0mm
16:09 85.6 °F /  29.8 °C 67.1 °F /  19.5 °C 30.00in /  1015.8hPa SE 6.0mph /  9.7km/h 10.0mph /  16.1km/h 54% 0.00in /  0mm
16:14 85.9 °F /  29.9 °C 68.4 °F /  20.2 °C 30.00in /  1015.8hPa SSW 3.0mph /  4.8km/h 6.0mph /  9.7km/h 56% 0.00in /  0mm
16:19 86.2 °F /  30.1 °C 68.2 °F /  20.1 °C 30.01in /  1016.1hPa SE 8.0mph /  12.9km/h 9.0mph /  14.5km/h 55% 0.00in /  0mm
16:24 85.9 °F /  29.9 °C 67.3 °F /  19.6 °C 30.01in /  1016.1hPa SE 9.0mph /  14.5km/h 9.0mph /  14.5km/h 54% 0.00in /  0mm
16:29 86.0 °F /  30 °C 68.0 °F /  20 °C 30.00in /  1015.8hPa SSW 8.0mph /  12.9km/h 9.0mph /  14.5km/h 55% 0.00in /  0mm
16:34 86.5 °F /  30.3 °C 69.0 °F /  20.6 °C 30.01in /  1016.1hPa SSW 6.0mph /  9.7km/h 6.0mph /  9.7km/h 56% 0.00in /  0mm
16:39 86.7 °F /  30.4 °C 69.1 °F /  20.6 °C 30.00in /  1015.8hPa SSW 5.0mph /  8km/h 9.0mph /  14.5km/h 56% 0.00in /  0mm
16:44 86.5 °F /  30.3 °C 68.4 °F /  20.2 °C 30.00in /  1015.8hPa SE 7.0mph /  11.3km/h 11.0mph /  17.7km/h 55% 0.00in /  0mm
16:49 86.3 °F /  30.2 °C 69.3 °F /  20.7 °C 30.00in /  1015.8hPa SSE 8.0mph /  12.9km/h 11.0mph /  17.7km/h 57% 0.00in /  0mm
16:54 86.4 °F /  30.2 °C 67.8 °F /  19.9 °C 30.01in /  1016.1hPa SE 5.0mph /  8km/h 9.0mph /  14.5km/h 54% 0.00in /  0mm
16:59 86.5 °F /  30.3 °C 67.9 °F /  19.9 °C 30.00in /  1015.8hPa SW 4.0mph /  6.4km/h 6.0mph /  9.7km/h 54% 0.00in /  0mm
17:04 86.7 °F /  30.4 °C 68.6 °F /  20.3 °C 30.00in /  1015.8hPa SW 7.0mph /  11.3km/h 8.0mph /  12.9km/h 55% 0.00in /  0mm
17:09 86.5 °F /  30.3 °C 69.0 °F /  20.6 °C 30.00in /  1015.8hPa ESE 6.0mph /  9.7km/h 9.0mph /  14.5km/h 56% 0.00in /  0mm
17:14 86.6 °F /  30.3 °C 69.1 °F /  20.6 °C 30.01in /  1016.1hPa SSE 3.0mph /  4.8km/h 8.0mph /  12.9km/h 56% 0.00in /  0mm
17:19 86.7 °F /  30.4 °C 69.1 °F /  20.6 °C 30.01in /  1016.1hPa ESE 4.0mph /  6.4km/h 7.0mph /  11.3km/h 56% 0.00in /  0mm
17:24 86.3 °F /  30.2 °C 67.7 °F /  19.8 °C 30.00in /  1015.8hPa ESE 6.0mph /  9.7km/h 11.0mph /  17.7km/h 54% 0.00in /  0mm
17:29 86.2 °F /  30.1 °C 67.6 °F /  19.8 °C 30.00in /  1015.8hPa SE 7.0mph /  11.3km/h 8.0mph /  12.9km/h 54% 0.00in /  0mm
17:34 86.3 °F /  30.2 °C 67.2 °F /  19.6 °C 30.00in /  1015.8hPa SSE 5.0mph /  8km/h 10.0mph /  16.1km/h 53% 0.00in /  0mm
17:39 86.4 °F /  30.2 °C 66.7 °F /  19.3 °C 30.00in /  1015.8hPa SE 4.0mph /  6.4km/h 7.0mph /  11.3km/h 52% 0.00in /  0mm
17:44 86.5 °F /  30.3 °C 69.0 °F /  20.6 °C 30.00in /  1015.8hPa SSE 5.0mph /  8km/h 5.0mph /  8km/h 56% 0.00in /  0mm
17:50 87.0 °F /  30.6 °C 68.9 °F /  20.5 °C 30.00in /  1015.8hPa SE 7.0mph /  11.3km/h 8.0mph /  12.9km/h 55% 0.00in /  0mm
17:55 86.6 °F /  30.3 °C 68.0 °F /  20 °C 30.00in /  1015.8hPa East 4.0mph /  6.4km/h 9.0mph /  14.5km/h 54% 0.00in /  0mm
18:00 86.4 °F /  30.2 °C 69.4 °F /  20.8 °C 30.00in /  1015.8hPa SE 2.0mph /  3.2km/h 8.0mph /  12.9km/h 57% 0.00in /  0mm
18:05 86.7 °F /  30.4 °C 67.5 °F /  19.7 °C 30.00in /  1015.8hPa South 3.0mph /  4.8km/h 4.0mph /  6.4km/h 53% 0.00in /  0mm
18:10 87.0 °F /  30.6 °C 67.8 °F /  19.9 °C 30.00in /  1015.8hPa SSE 2.0mph /  3.2km/h 6.0mph /  9.7km/h 53% 0.00in /  0mm
18:15 87.4 °F /  30.8 °C 69.8 °F /  21 °C 30.00in /  1015.8hPa SSW 3.0mph /  4.8km/h 5.0mph /  8km/h 56% 0.00in /  0mm
18:20 87.6 °F /  30.9 °C 68.9 °F /  20.5 °C 30.00in /  1015.8hPa SSE 3.0mph /  4.8km/h 8.0mph /  12.9km/h 54% 0.00in /  0mm
18:25 87.0 °F /  30.6 °C 67.3 °F /  19.6 °C 30.00in /  1015.8hPa SE 8.0mph /  12.9km/h 9.0mph /  14.5km/h 52% 0.00in /  0mm
18:30 86.8 °F /  30.4 °C 68.7 °F /  20.4 °C 30.00in /  1015.8hPa SSW 5.0mph /  8km/h 10.0mph /  16.1km/h 55% 0.00in /  0mm
18:35 86.7 °F /  30.4 °C 68.6 °F /  20.3 °C 30.00in /  1015.8hPa SSE 6.0mph /  9.7km/h 6.0mph /  9.7km/h 55% 0.00in /  0mm
18:40 86.6 °F /  30.3 °C 66.9 °F /  19.4 °C 30.00in /  1015.8hPa SSE 5.0mph /  8km/h 7.0mph /  11.3km/h 52% 0.00in /  0mm
18:45 86.6 °F /  30.3 °C 68.0 °F /  20 °C 30.00in /  1015.8hPa West 1.0mph /  1.6km/h 5.0mph /  8km/h 54% 0.00in /  0mm
18:50 86.7 °F /  30.4 °C 68.1 °F /  20.1 °C 30.00in /  1015.8hPa SSW 2.0mph /  3.2km/h 5.0mph /  8km/h 54% 0.00in /  0mm
18:55 87.0 °F /  30.6 °C 68.4 °F /  20.2 °C 30.00in /  1015.8hPa SE 3.0mph /  4.8km/h 4.0mph /  6.4km/h 54% 0.00in /  0mm
19:00 87.0 °F /  30.6 °C 68.4 °F /  20.2 °C 30.00in /  1015.8hPa South 2.0mph /  3.2km/h 4.0mph /  6.4km/h 54% 0.00in /  0mm
19:05 86.9 °F /  30.5 °C 68.3 °F /  20.2 °C 30.00in /  1015.8hPa SE 5.0mph /  8km/h 6.0mph /  9.7km/h 54% 0.00in /  0mm
19:10 86.6 °F /  30.3 °C 68.5 °F /  20.3 °C 29.99in /  1015.5hPa SSE 3.0mph /  4.8km/h 6.0mph /  9.7km/h 55% 0.00in /  0mm
19:15 86.4 °F /  30.2 °C 67.3 °F /  19.6 °C 30.00in /  1015.8hPa SSE 5.0mph /  8km/h 6.0mph /  9.7km/h 53% 0.00in /  0mm
19:20 86.5 °F /  30.3 °C 67.9 °F /  19.9 °C 30.00in /  1015.8hPa South 4.0mph /  6.4km/h 4.0mph /  6.4km/h 54% 0.00in /  0mm
19:25 86.6 °F /  30.3 °C 68.0 °F /  20 °C 30.00in /  1015.8hPa SSE 2.0mph /  3.2km/h 4.0mph /  6.4km/h 54% 0.00in /  0mm
19:30 86.3 °F /  30.2 °C 68.2 °F /  20.1 °C 30.00in /  1015.8hPa SSE 3.0mph /  4.8km/h 6.0mph /  9.7km/h 55% 0.00in /  0mm
19:35 86.2 °F /  30.1 °C 68.2 °F /  20.1 °C 30.00in /  1015.8hPa SSE 2.0mph /  3.2km/h 4.0mph /  6.4km/h 55% 0.00in /  0mm
19:40 86.1 °F /  30.1 °C 68.1 °F /  20.1 °C 30.00in /  1015.8hPa SSE 3.0mph /  4.8km/h 5.0mph /  8km/h 55% 0.00in /  0mm
19:45 85.7 °F /  29.8 °C 68.2 °F /  20.1 °C 30.00in /  1015.8hPa SSE 5.0mph /  8km/h 5.0mph /  8km/h 56% 0.00in /  0mm
19:50 85.6 °F /  29.8 °C 68.6 °F /  20.3 °C 30.00in /  1015.8hPa SSE 3.0mph /  4.8km/h 5.0mph /  8km/h 57% 0.00in /  0mm
19:55 85.4 °F /  29.7 °C 67.9 °F /  19.9 °C 30.00in /  1015.8hPa SSE 3.0mph /  4.8km/h 3.0mph /  4.8km/h 56% 0.00in /  0mm
20:00 85.3 °F /  29.6 °C 68.9 °F /  20.5 °C 30.00in /  1015.8hPa SE 4.0mph /  6.4km/h 4.0mph /  6.4km/h 58% 0.00in /  0mm
20:05 84.8 °F /  29.3 °C 68.9 °F /  20.5 °C 30.00in /  1015.8hPa SSE 3.0mph /  4.8km/h 4.0mph /  6.4km/h 59% 0.00in /  0mm
20:10 84.4 °F /  29.1 °C 69.5 °F /  20.8 °C 30.00in /  1015.8hPa SSE 2.0mph /  3.2km/h 3.0mph /  4.8km/h 61% 0.00in /  0mm
20:15 84.0 °F /  28.9 °C 69.6 °F /  20.9 °C 30.00in /  1015.8hPa SE 3.0mph /  4.8km/h 3.0mph /  4.8km/h 62% 0.00in /  0mm
20:20 83.8 °F /  28.8 °C 69.4 °F /  20.8 °C 30.00in /  1015.8hPa SSE 2.0mph /  3.2km/h 3.0mph /  4.8km/h 62% 0.00in /  0mm
20:25 83.4 °F /  28.6 °C 69.0 °F /  20.6 °C 30.00in /  1015.8hPa SSE 2.0mph /  3.2km/h 4.0mph /  6.4km/h 62% 0.00in /  0mm
20:30 83.0 °F /  28.3 °C 69.6 °F /  20.9 °C 30.01in /  1016.1hPa SE 2.0mph /  3.2km/h 3.0mph /  4.8km/h 64% 0.00in /  0mm
20:35 82.7 °F /  28.2 °C 69.3 °F /  20.7 °C 30.01in /  1016.1hPa SE 2.0mph /  3.2km/h 3.0mph /  4.8km/h 64% 0.00in /  0mm
20:40 82.3 °F /  27.9 °C 69.4 °F /  20.8 °C 30.01in /  1016.1hPa SE 2.0mph /  3.2km/h 3.0mph /  4.8km/h 65% 0.00in /  0mm
20:45 81.8 °F /  27.7 °C 69.3 °F /  20.7 °C 30.01in /  1016.1hPa SSE 1.0mph /  1.6km/h 2.0mph /  3.2km/h 66% 0.00in /  0mm
20:51 81.1 °F /  27.3 °C 69.1 °F /  20.6 °C 30.01in /  1016.1hPa SE 2.0mph /  3.2km/h 2.0mph /  3.2km/h 67% 0.00in /  0mm
20:56 80.7 °F /  27.1 °C 68.7 °F /  20.4 °C 30.01in /  1016.1hPa SSE 1.0mph /  1.6km/h 2.0mph /  3.2km/h 67% 0.00in /  0mm
21:01 80.1 °F /  26.7 °C 68.6 °F /  20.3 °C 30.01in /  1016.1hPa SE 1.0mph /  1.6km/h 1.0mph /  1.6km/h 68% 0.00in /  0mm
21:06 79.6 °F /  26.4 °C 68.5 °F /  20.3 °C 30.01in /  1016.1hPa Calm   1.0mph /  1.6km/h 69% 0.00in /  0mm
21:11 79.2 °F /  26.2 °C 68.6 °F /  20.3 °C 30.01in /  1016.1hPa Calm     70% 0.00in /  0mm
21:16 78.8 °F /  26 °C 68.6 °F /  20.3 °C 30.01in /  1016.1hPa SE 1.0mph /  1.6km/h 1.0mph /  1.6km/h 71% 0.00in /  0mm
21:21 78.7 °F /  25.9 °C 68.5 °F /  20.3 °C 30.01in /  1016.1hPa SE 1.0mph /  1.6km/h 2.0mph /  3.2km/h 71% 0.00in /  0mm
21:26 78.6 °F /  25.9 °C 68.4 °F /  20.2 °C 30.01in /  1016.1hPa ESE 4.0mph /  6.4km/h 4.0mph /  6.4km/h 71% 0.00in /  0mm
21:31 78.6 °F /  25.9 °C 68.4 °F /  20.2 °C 30.01in /  1016.1hPa ESE 3.0mph /  4.8km/h 3.0mph /  4.8km/h 71% 0.00in /  0mm
21:36 78.6 °F /  25.9 °C 68.4 °F /  20.2 °C 30.01in /  1016.1hPa SE 2.0mph /  3.2km/h 3.0mph /  4.8km/h 71% 0.00in /  0mm
21:41 78.4 °F /  25.8 °C 68.2 °F /  20.1 °C 30.01in /  1016.1hPa ESE 3.0mph /  4.8km/h 4.0mph /  6.4km/h 71% 0.00in /  0mm
21:46 77.9 °F /  25.5 °C 68.6 °F /  20.3 °C 30.01in /  1016.1hPa ESE 6.0mph /  9.7km/h 6.0mph /  9.7km/h 73% 0.00in /  0mm
21:51 77.2 °F /  25.1 °C 68.7 °F /  20.4 °C 30.01in /  1016.1hPa ESE 4.0mph /  6.4km/h 6.0mph /  9.7km/h 75% 0.00in /  0mm
21:56 76.7 °F /  24.8 °C 68.9 °F /  20.5 °C 30.01in /  1016.1hPa SE 3.0mph /  4.8km/h 4.0mph /  6.4km/h 77% 0.00in /  0mm
22:01 76.6 °F /  24.8 °C 68.9 °F /  20.5 °C 30.02in /  1016.5hPa Calm   2.0mph /  3.2km/h 77% 0.00in /  0mm
22:06 76.5 °F /  24.7 °C 68.8 °F /  20.4 °C 30.02in /  1016.5hPa East 1.0mph /  1.6km/h 1.0mph /  1.6km/h 77% 0.00in /  0mm
22:11 76.5 °F /  24.7 °C 69.1 °F /  20.6 °C 30.03in /  1016.8hPa East 1.0mph /  1.6km/h 1.0mph /  1.6km/h 78% 0.00in /  0mm
22:16 76.3 °F /  24.6 °C 68.9 °F /  20.5 °C 30.03in /  1016.8hPa East 1.0mph /  1.6km/h 2.0mph /  3.2km/h 78% 0.00in /  0mm
22:21 76.1 °F /  24.5 °C 68.8 °F /  20.4 °C 30.02in /  1016.5hPa ESE 1.0mph /  1.6km/h 2.0mph /  3.2km/h 78% 0.00in /  0mm
22:26 75.9 °F /  24.4 °C 68.6 °F /  20.3 °C 30.03in /  1016.8hPa ESE 2.0mph /  3.2km/h 3.0mph /  4.8km/h 78% 0.00in /  0mm
22:31 75.8 °F /  24.3 °C 68.5 °F /  20.3 °C 30.03in /  1016.8hPa ESE 2.0mph /  3.2km/h 4.0mph /  6.4km/h 78% 0.00in /  0mm
22:36 75.5 °F /  24.2 °C 68.2 °F /  20.1 °C 30.03in /  1016.8hPa ESE 2.0mph /  3.2km/h 3.0mph /  4.8km/h 78% 0.00in /  0mm
22:41 75.4 °F /  24.1 °C 68.1 °F /  20.1 °C 30.03in /  1016.8hPa Calm   1.0mph /  1.6km/h 78% 0.00in /  0mm
22:46 75.1 °F /  23.9 °C 68.2 °F /  20.1 °C 30.04in /  1017.2hPa SE 1.0mph /  1.6km/h 1.0mph /  1.6km/h 79% 0.00in /  0mm
22:51 75.0 °F /  23.9 °C 68.1 °F /  20.1 °C 30.04in /  1017.2hPa ESE 1.0mph /  1.6km/h 2.0mph /  3.2km/h 79% 0.00in /  0mm
22:56 75.0 °F /  23.9 °C 68.1 °F /  20.1 °C 30.04in /  1017.2hPa Calm   1.0mph /  1.6km/h 79% 0.00in /  0mm
23:01 74.8 °F /  23.8 °C 68.2 °F /  20.1 °C 30.04in /  1017.2hPa ESE 1.0mph /  1.6km/h 2.0mph /  3.2km/h 80% 0.00in /  0mm
23:06 74.6 °F /  23.7 °C 68.0 °F /  20 °C 30.04in /  1017.2hPa SE 1.0mph /  1.6km/h 2.0mph /  3.2km/h 80% 0.00in /  0mm
23:11 74.4 °F /  23.6 °C 68.2 °F /  20.1 °C 30.04in /  1017.2hPa SE 1.0mph /  1.6km/h 2.0mph /  3.2km/h 81% 0.00in /  0mm
23:16 74.2 °F /  23.4 °C 68.0 °F /  20 °C 30.04in /  1017.2hPa SE 2.0mph /  3.2km/h 2.0mph /  3.2km/h 81% 0.00in /  0mm
23:21 74.3 °F /  23.5 °C 68.1 °F /  20.1 °C 30.03in /  1016.8hPa SE 2.0mph /  3.2km/h 2.0mph /  3.2km/h 81% 0.00in /  0mm
23:26 74.4 °F /  23.6 °C 67.8 °F /  19.9 °C 30.04in /  1017.2hPa SE 3.0mph /  4.8km/h 4.0mph /  6.4km/h 80% 0.00in /  0mm
23:31 74.3 °F /  23.5 °C 67.7 °F /  19.8 °C 30.04in /  1017.2hPa ESE 4.0mph /  6.4km/h 4.0mph /  6.4km/h 80% 0.00in /  0mm
23:36 74.2 °F /  23.4 °C 67.6 °F /  19.8 °C 30.04in /  1017.2hPa ESE 5.0mph /  8km/h 5.0mph /  8km/h 80% 0.00in /  0mm
23:41 74.3 °F /  23.5 °C 67.7 °F /  19.8 °C 30.04in /  1017.2hPa SE 5.0mph /  8km/h 6.0mph /  9.7km/h 80% 0.00in /  0mm
23:46 74.2 °F /  23.4 °C 67.6 °F /  19.8 °C 30.04in /  1017.2hPa SE 5.0mph /  8km/h 6.0mph /  9.7km/h 80% 0.00in /  0mm
23:51 74.0 °F /  23.3 °C 67.8 °F /  19.9 °C 30.05in /  1017.5hPa ESE 4.0mph /  6.4km/h 5.0mph /  8km/h 81% 0.00in /  0mm
23:56 73.8 °F /  23.2 °C 67.6 °F /  19.8 °C 30.05in /  1017.5hPa SE 4.0mph /  6.4km/h 6.0mph /  9.7km/h 81% 0.00in /  0mm
Compliments of Weather Underground